CheckWX is a tool to help pilots better visualize weather data.  It is not intended as a substitute for an official pre-flight weather briefing.

05:32:34 UTC

K88 METAR
Allen County Airport
Iola, Kansas, USA
Current

18 mins ago

KK88 200515Z AUTO 16004KT 10SM CLR 26/24 A3000 RMK AO1 T02550241
Observed
Aug-20 @ 05:15 UTC
Wind
  • 160° at 4 KTS
Visibility
10 SM
Flight Rules
VFR
Cloud Levels
  • Clear skies
Temperature
26°C / 79°F
Dewpoint
24°C / 75°F
Humidity
89%
Altimeter
30" Hg
Pressure
1015.92 hPa
Previous

38 mins ago

KK88 200455Z AUTO 16003KT 10SM CLR 26/24 A3000 RMK AO1 T02580241 403390225
Observed
Aug-20 @ 04:55 UTC
Wind
  • 160° at 3 KTS
Visibility
10 SM
Flight Rules
VFR
Cloud Levels
  • Clear skies
Temperature
26°C / 79°F
Dewpoint
24°C / 75°F
Humidity
89%
Altimeter
30" Hg
Pressure
1015.92 hPa
Previous

58 mins ago

KK88 200435Z AUTO 16003KT 10SM CLR 26/24 A3000 RMK AO1 T02600242
Observed
Aug-20 @ 04:35 UTC
Wind
  • 160° at 3 KTS
Visibility
10 SM
Flight Rules
VFR
Cloud Levels
  • Clear skies
Temperature
26°C / 79°F
Dewpoint
24°C / 75°F
Humidity
89%
Altimeter
30" Hg
Pressure
1015.92 hPa